createdAt,value
2022-10-17T00:00:29.981Z,2.57
2022-10-17T00:01:52.102Z,3.57
2022-10-17T00:03:14.260Z,2.90
2022-10-17T00:04:36.270Z,3.30
2022-10-17T00:05:58.495Z,3.10
2022-10-17T00:07:20.575Z,3.10
2022-10-17T00:08:44.131Z,3.30
2022-10-17T00:10:07.277Z,3.40
2022-10-17T00:11:29.367Z,3.40
2022-10-17T00:12:52.451Z,3.13
2022-10-17T00:14:14.598Z,2.87
2022-10-17T00:15:36.694Z,3.00
2022-10-17T00:16:58.692Z,3.83
2022-10-17T00:18:20.897Z,3.40
2022-10-17T00:19:42.901Z,3.70
2022-10-17T00:21:05.093Z,3.10
2022-10-17T00:22:27.710Z,3.23
2022-10-17T00:23:50.338Z,3.00
2022-10-17T00:25:12.543Z,3.03
2022-10-17T00:26:34.740Z,3.50
2022-10-17T00:27:56.795Z,3.00
2022-10-17T00:29:18.795Z,3.40
2022-10-17T00:30:41.496Z,3.30
2022-10-17T00:32:03.580Z,3.37
2022-10-17T00:33:26.625Z,3.43
2022-10-17T00:36:08.054Z,3.80
2022-10-17T00:37:34.349Z,2.80
2022-10-17T00:38:58.820Z,3.00
2022-10-17T00:40:20.996Z,3.23
2022-10-17T00:41:43.088Z,2.70
2022-10-17T00:43:06.630Z,3.10
2022-10-17T00:44:31.875Z,3.30
2022-10-17T00:45:54.086Z,3.27
2022-10-17T00:47:22.058Z,2.67
2022-10-17T00:48:45.115Z,3.33
2022-10-17T00:50:08.235Z,2.93
2022-10-17T00:51:58.387Z,3.20
2022-10-17T00:53:20.615Z,2.70
2022-10-17T00:54:51.979Z,2.83
2022-10-17T00:56:15.134Z,2.83
2022-10-17T00:57:38.850Z,3.10
2022-10-17T00:59:01.431Z,3.50
2022-10-17T01:00:24.307Z,3.33
2022-10-17T01:02:15.933Z,2.60
2022-10-17T01:03:38.327Z,3.27
2022-10-17T01:05:01.003Z,3.00
2022-10-17T01:06:23.664Z,3.33
2022-10-17T01:07:47.304Z,3.40
2022-10-17T01:09:09.803Z,3.20
2022-10-17T01:10:44.110Z,3.30
2022-10-17T01:12:33.933Z,2.97
2022-10-17T01:14:06.773Z,2.83
2022-10-17T01:15:41.481Z,2.80
2022-10-17T01:17:28.703Z,3.13
2022-10-17T01:19:17.458Z,2.93
2022-10-17T01:21:17.099Z,3.13
2022-10-17T01:22:54.196Z,3.00
2022-10-17T01:24:28.415Z,3.57
2022-10-17T01:26:08.835Z,2.87
2022-10-17T01:28:06.449Z,3.20
2022-10-17T01:29:37.203Z,3.30
2022-10-17T01:31:15.825Z,3.20
2022-10-17T01:32:47.507Z,2.90
2022-10-17T01:34:28.779Z,3.00
2022-10-17T01:36:03.332Z,2.60
2022-10-17T01:37:45.748Z,2.50
2022-10-17T01:39:25.894Z,3.30
2022-10-17T01:40:52.565Z,2.50
2022-10-17T01:42:29.037Z,2.93
2022-10-17T01:44:00.645Z,2.80
2022-10-17T01:45:49.127Z,2.53
2022-10-17T01:47:19.177Z,3.17
2022-10-17T01:48:45.641Z,2.80
2022-10-17T01:50:23.267Z,2.77
2022-10-17T01:51:52.816Z,2.47
2022-10-17T01:53:24.187Z,2.70
2022-10-17T01:54:54.850Z,2.60
2022-10-17T01:56:18.415Z,2.87
2022-10-17T01:57:46.260Z,3.07
2022-10-17T01:59:22.353Z,2.80
2022-10-17T02:00:47.329Z,2.60
2022-10-17T02:02:10.498Z,3.07
2022-10-17T02:03:34.514Z,2.67
2022-10-17T02:04:57.439Z,3.13
2022-10-17T02:06:19.671Z,3.17
2022-10-17T02:07:42.470Z,3.20
2022-10-17T02:09:25.301Z,3.17
2022-10-17T02:10:52.482Z,3.17
2022-10-17T02:12:38.875Z,2.90
2022-10-17T02:14:06.875Z,3.53
2022-10-17T02:15:46.812Z,2.57
2022-10-17T02:17:24.055Z,2.90
2022-10-17T02:19:01.233Z,3.00
2022-10-17T02:20:35.339Z,2.80
2022-10-17T02:22:41.379Z,2.87
2022-10-17T02:24:30.755Z,2.80
2022-10-17T02:26:11.937Z,2.53
2022-10-17T02:27:40.080Z,2.90
2022-10-17T02:29:09.383Z,3.77
2022-10-17T02:30:36.846Z,3.80
2022-10-17T02:32:00.991Z,3.33
2022-10-17T02:33:44.093Z,3.30
2022-10-17T02:35:09.236Z,2.80
2022-10-17T02:36:38.234Z,2.53
2022-10-17T02:38:02.105Z,3.23
2022-10-17T02:39:27.268Z,2.80
2022-10-17T02:40:51.815Z,2.73
2022-10-17T02:42:15.172Z,2.90
2022-10-17T02:43:38.560Z,3.17
2022-10-17T02:45:02.637Z,2.97
2022-10-17T02:46:27.005Z,2.77
2022-10-17T02:47:59.353Z,3.27
2022-10-17T02:49:33.953Z,2.90
2022-10-17T02:51:07.620Z,2.73
2022-10-17T02:52:36.820Z,2.97
2022-10-17T02:54:09.884Z,3.13
2022-10-17T02:55:36.403Z,3.00
2022-10-17T02:57:06.795Z,2.87
2022-10-17T02:58:33.360Z,3.60
2022-10-17T02:59:58.935Z,2.47
2022-10-17T03:01:21.888Z,2.70
2022-10-17T03:02:52.504Z,2.80
2022-10-17T03:04:15.191Z,3.00
2022-10-17T03:05:37.246Z,3.20
2022-10-17T03:06:59.353Z,2.77
2022-10-17T03:08:22.003Z,2.80
2022-10-17T03:09:44.081Z,3.20
2022-10-17T03:11:06.254Z,3.03
2022-10-17T03:12:28.571Z,2.80
2022-10-17T03:13:50.864Z,3.00
2022-10-17T03:15:13.786Z,3.43
2022-10-17T03:16:35.868Z,2.93
2022-10-17T03:17:57.934Z,2.73
2022-10-17T03:19:20.003Z,2.80
2022-10-17T03:20:42.110Z,2.87
2022-10-17T03:22:04.161Z,2.60
2022-10-17T03:23:26.222Z,2.90
2022-10-17T03:24:48.250Z,2.73
2022-10-17T03:26:10.681Z,2.50
2022-10-17T03:27:33.051Z,3.53
2022-10-17T03:28:55.789Z,2.83
2022-10-17T03:30:18.278Z,3.37
2022-10-17T03:31:40.313Z,2.50
2022-10-17T03:33:02.434Z,2.87
2022-10-17T03:34:24.490Z,2.80
2022-10-17T03:35:46.599Z,2.53
2022-10-17T03:37:08.912Z,2.90
2022-10-17T03:38:30.952Z,2.50
2022-10-17T03:39:52.974Z,2.97
2022-10-17T03:41:15.249Z,2.80
2022-10-17T03:42:37.459Z,3.00
2022-10-17T03:43:59.446Z,3.83
2022-10-17T03:45:21.505Z,3.63
2022-10-17T03:46:43.650Z,3.27
2022-10-17T03:48:06.005Z,2.87
2022-10-17T03:49:28.043Z,2.67
2022-10-17T03:50:50.406Z,3.17
2022-10-17T03:52:13.411Z,3.10
2022-10-17T03:53:35.588Z,2.80
2022-10-17T03:54:57.725Z,2.60
2022-10-17T03:56:23.020Z,2.60
2022-10-17T03:57:45.689Z,2.70
2022-10-17T03:59:11.153Z,2.90
2022-10-17T04:00:33.214Z,3.00
2022-10-17T04:01:55.316Z,2.80
2022-10-17T04:03:17.505Z,3.67
2022-10-17T04:04:39.657Z,2.70
2022-10-17T04:06:03.393Z,2.63
2022-10-17T04:08:48.997Z,2.50
2022-10-17T04:10:11.155Z,2.87
2022-10-17T04:11:33.657Z,2.57
2022-10-17T04:12:55.777Z,2.73
2022-10-17T04:14:17.854Z,2.33
2022-10-17T04:15:39.958Z,2.70
2022-10-17T04:17:02.051Z,2.20
2022-10-17T04:18:24.230Z,2.60
2022-10-17T04:19:46.333Z,2.63
2022-10-17T04:21:09.568Z,3.10
2022-10-17T04:22:31.966Z,2.60
2022-10-17T04:23:59.086Z,2.60
2022-10-17T04:25:21.523Z,2.40
2022-10-17T04:26:43.570Z,2.87
2022-10-17T04:28:05.671Z,2.60
2022-10-17T04:29:27.839Z,2.80
2022-10-17T04:31:06.487Z,2.50
2022-10-17T04:32:28.789Z,3.77
2022-10-17T04:33:51.071Z,2.83
2022-10-17T04:35:13.197Z,3.00
2022-10-17T04:36:35.291Z,2.90
2022-10-17T04:37:57.427Z,2.50
2022-10-17T04:39:19.553Z,2.77
2022-10-17T04:40:41.637Z,2.63
2022-10-17T04:42:03.823Z,2.27
2022-10-17T04:43:26.385Z,2.33
2022-10-17T04:44:48.562Z,2.73
2022-10-17T04:46:13.634Z,2.67
2022-10-17T04:47:35.734Z,2.43
2022-10-17T04:48:57.823Z,2.60
2022-10-17T04:50:19.901Z,2.60
2022-10-17T04:51:42.023Z,2.20
2022-10-17T04:53:04.105Z,2.57
2022-10-17T04:54:26.200Z,2.70
2022-10-17T04:55:48.358Z,2.30
2022-10-17T04:57:10.660Z,2.63
2022-10-17T04:58:32.853Z,3.10
2022-10-17T04:59:54.951Z,2.87
2022-10-17T05:01:19.699Z,3.00
2022-10-17T05:02:41.753Z,3.07
2022-10-17T05:04:04.053Z,2.70
2022-10-17T05:05:26.105Z,2.47
2022-10-17T05:06:48.127Z,2.50
2022-10-17T05:08:11.254Z,3.30
2022-10-17T05:09:33.319Z,2.60
2022-10-17T05:10:55.347Z,3.17
2022-10-17T05:12:17.433Z,4.00
2022-10-17T05:13:39.414Z,3.00
2022-10-17T05:15:01.465Z,2.80
2022-10-17T05:16:24.374Z,3.37
2022-10-17T05:17:46.438Z,3.30
2022-10-17T05:19:08.499Z,3.57
2022-10-17T05:20:30.775Z,3.20
2022-10-17T05:21:52.836Z,3.27
2022-10-17T05:23:14.913Z,3.60
2022-10-17T05:24:36.995Z,2.97
2022-10-17T05:25:59.130Z,3.57
2022-10-17T05:27:21.185Z,3.37
2022-10-17T05:28:43.363Z,3.47
2022-10-17T05:30:06.429Z,3.03
2022-10-17T05:31:29.314Z,3.50
2022-10-17T05:32:55.209Z,3.40
2022-10-17T05:34:17.256Z,3.60
2022-10-17T05:35:39.460Z,2.90
2022-10-17T05:37:01.596Z,3.67
2022-10-17T05:38:23.661Z,3.03
2022-10-17T05:39:50.571Z,3.57
2022-10-17T05:41:13.728Z,3.77
2022-10-17T05:42:35.846Z,2.97
2022-10-17T05:43:59.460Z,3.60
2022-10-17T05:45:24.247Z,3.40
2022-10-17T05:46:49.602Z,3.40
2022-10-17T05:48:11.779Z,3.70
2022-10-17T05:49:45.059Z,3.30
2022-10-17T05:51:12.286Z,2.73
2022-10-17T05:52:34.479Z,2.83
2022-10-17T05:53:56.577Z,2.80
2022-10-17T05:55:18.871Z,2.97
2022-10-17T05:56:40.966Z,2.83
2022-10-17T05:58:04.576Z,2.97
2022-10-17T05:59:27.182Z,2.60
2022-10-17T06:00:49.320Z,2.70
2022-10-17T06:02:13.125Z,2.33
2022-10-17T06:03:35.255Z,2.60
2022-10-17T06:04:57.335Z,1.87
2022-10-17T06:06:19.738Z,2.20
2022-10-17T06:07:41.858Z,2.60
2022-10-17T06:09:04.577Z,2.00
2022-10-17T06:10:26.745Z,2.27
2022-10-17T06:11:49.022Z,1.87
2022-10-17T06:13:11.055Z,2.00
2022-10-17T06:14:33.482Z,1.90
2022-10-17T06:15:55.625Z,3.67
2022-10-17T06:17:17.641Z,4.93
2022-10-17T06:18:39.911Z,16.33
2022-10-17T06:20:02.265Z,24.63
2022-10-17T06:21:26.951Z,4.90
2022-10-17T06:22:49.000Z,4.37
2022-10-17T06:24:11.041Z,6.47
2022-10-17T06:25:33.455Z,5.70
2022-10-17T06:26:55.560Z,6.60
2022-10-17T06:28:17.636Z,3.50
2022-10-17T06:29:40.224Z,5.00
2022-10-17T06:31:13.355Z,5.23
2022-10-17T06:32:35.454Z,12.80
2022-10-17T06:33:57.495Z,7.73
2022-10-17T06:35:20.172Z,7.10
2022-10-17T06:36:42.188Z,9.20
2022-10-17T06:38:04.951Z,6.20
2022-10-17T06:39:33.642Z,10.90
2022-10-17T06:41:02.208Z,7.70
2022-10-17T06:42:24.334Z,12.80
2022-10-17T06:43:47.330Z,11.10
2022-10-17T06:45:10.116Z,10.07
2022-10-17T06:46:32.186Z,8.10
2022-10-17T06:47:54.197Z,3.70
2022-10-17T06:49:16.195Z,2.50
2022-10-17T06:50:38.597Z,3.07
2022-10-17T06:52:00.700Z,1.90
2022-10-17T06:53:24.966Z,2.20
2022-10-17T06:54:47.055Z,1.97
2022-10-17T06:56:10.469Z,1.83
2022-10-17T06:57:32.629Z,1.90
2022-10-17T06:58:55.000Z,1.67
2022-10-17T07:00:17.072Z,1.70
2022-10-17T07:01:40.743Z,1.60
2022-10-17T07:03:05.235Z,1.80
2022-10-17T07:04:27.388Z,1.87
2022-10-17T07:05:55.972Z,2.13
2022-10-17T07:07:17.968Z,2.20
2022-10-17T07:08:44.665Z,1.57
2022-10-17T07:10:10.081Z,2.20
2022-10-17T07:11:32.465Z,1.97
2022-10-17T07:12:54.504Z,1.90
2022-10-17T07:14:16.547Z,4.00
2022-10-17T07:15:38.992Z,2.00
2022-10-17T07:17:02.038Z,2.23
2022-10-17T07:18:24.067Z,3.10
2022-10-17T07:19:46.128Z,2.87
2022-10-17T07:21:08.888Z,1.87
2022-10-17T07:22:30.894Z,1.50
2022-10-17T07:23:52.973Z,2.20
2022-10-17T07:25:15.020Z,2.23
2022-10-17T07:26:37.052Z,2.00
2022-10-17T07:27:59.186Z,1.87
2022-10-17T07:29:21.614Z,1.77
2022-10-17T07:30:44.458Z,1.77
2022-10-17T07:32:08.525Z,1.70
2022-10-17T07:33:30.668Z,2.00
2022-10-17T07:34:52.743Z,1.47
2022-10-17T07:36:15.510Z,2.23
2022-10-17T07:37:38.070Z,1.80
2022-10-17T07:39:00.113Z,2.17
2022-10-17T07:40:22.283Z,2.13
2022-10-17T07:41:44.435Z,1.90
2022-10-17T07:43:06.477Z,1.70
2022-10-17T07:44:28.766Z,1.80
2022-10-17T07:45:51.744Z,1.97
2022-10-17T07:47:13.879Z,1.53
2022-10-17T07:48:35.939Z,1.70
2022-10-17T07:49:58.032Z,1.50
2022-10-17T07:51:20.165Z,1.50
2022-10-17T07:52:43.260Z,2.03
2022-10-17T07:54:06.387Z,1.50
2022-10-17T07:55:28.353Z,1.77
2022-10-17T07:56:50.648Z,1.77
2022-10-17T07:58:13.936Z,2.40
2022-10-17T07:59:37.706Z,2.10
2022-10-17T08:01:06.588Z,2.33
2022-10-17T08:02:30.736Z,2.30
2022-10-17T08:03:53.263Z,2.10
2022-10-17T08:05:15.328Z,2.27
2022-10-17T08:06:37.393Z,1.90
2022-10-17T08:07:59.500Z,2.20
2022-10-17T08:09:21.913Z,1.77
2022-10-17T08:10:43.948Z,1.70
2022-10-17T08:12:06.037Z,1.90
2022-10-17T08:13:28.021Z,2.07
2022-10-17T08:14:50.254Z,2.00
2022-10-17T08:16:13.475Z,2.00
2022-10-17T08:17:36.791Z,1.83
2022-10-17T08:18:58.861Z,5.80
2022-10-17T08:20:21.133Z,2.43
2022-10-17T08:21:44.854Z,1.80
2022-10-17T08:23:06.892Z,2.00
2022-10-17T08:24:28.967Z,1.93
2022-10-17T08:25:51.049Z,2.20
2022-10-17T08:27:13.765Z,1.77
2022-10-17T08:28:37.413Z,2.00
2022-10-17T08:29:59.813Z,2.07
2022-10-17T08:31:22.256Z,2.20
2022-10-17T08:32:44.410Z,3.00
2022-10-17T08:34:06.412Z,2.10
2022-10-17T08:35:28.799Z,2.07
2022-10-17T08:36:50.859Z,3.10
2022-10-17T08:38:13.522Z,2.47
2022-10-17T08:39:35.862Z,2.00
2022-10-17T08:41:01.727Z,2.43
2022-10-17T08:42:45.341Z,2.20
2022-10-17T08:44:19.479Z,2.23
2022-10-17T08:45:41.423Z,1.80
2022-10-17T08:47:09.921Z,2.30
2022-10-17T08:48:37.850Z,2.27
2022-10-17T08:50:03.983Z,2.00
2022-10-17T08:51:33.169Z,2.23
2022-10-17T08:53:15.899Z,2.50
2022-10-17T08:54:45.923Z,2.03
2022-10-17T08:56:19.726Z,2.47
2022-10-17T08:57:48.501Z,2.10
2022-10-17T08:59:17.709Z,2.30
2022-10-17T09:00:43.438Z,1.87
2022-10-17T09:02:41.446Z,1.80
2022-10-17T09:06:20.556Z,1.70
2022-10-17T09:07:48.605Z,2.10
2022-10-17T09:09:36.374Z,2.00
2022-10-17T09:11:29.881Z,2.67
2022-10-17T09:13:09.897Z,2.27
2022-10-17T09:15:14.353Z,1.90
2022-10-17T09:16:47.595Z,1.83
2022-10-17T09:18:13.261Z,2.03
2022-10-17T09:19:39.887Z,2.77
2022-10-17T09:21:14.497Z,2.60
2022-10-17T09:22:49.630Z,1.80
2022-10-17T09:24:20.638Z,2.73
2022-10-17T09:25:49.005Z,2.23
2022-10-17T09:27:28.019Z,3.07
2022-10-17T09:28:56.320Z,2.40
2022-10-17T09:31:00.418Z,2.20
2022-10-17T09:32:25.228Z,2.80
2022-10-17T09:33:54.198Z,2.40
2022-10-17T09:35:17.431Z,2.20
2022-10-17T09:36:40.619Z,2.20
2022-10-17T09:38:02.618Z,2.00
2022-10-17T09:39:26.644Z,2.30
2022-10-17T09:40:57.078Z,2.20
2022-10-17T09:42:21.944Z,1.83
2022-10-17T09:43:45.710Z,2.20
2022-10-17T09:45:10.699Z,2.13
2022-10-17T09:46:38.004Z,2.07
2022-10-17T09:48:01.690Z,2.20
2022-10-17T09:49:39.960Z,2.07
2022-10-17T09:51:14.812Z,2.10
2022-10-17T09:52:47.713Z,2.00
2022-10-17T09:54:22.358Z,2.40
2022-10-17T09:55:48.762Z,2.00
2022-10-17T09:57:12.729Z,2.10
2022-10-17T09:58:47.796Z,2.43
2022-10-17T10:00:26.016Z,1.83
2022-10-17T10:01:53.286Z,1.90
2022-10-17T10:03:18.204Z,2.60
2022-10-17T10:05:10.065Z,2.03
2022-10-17T10:06:32.149Z,2.20
2022-10-17T10:08:12.056Z,2.10
2022-10-17T10:09:39.374Z,2.10
2022-10-17T10:11:05.772Z,2.30
2022-10-17T10:12:31.267Z,2.13
2022-10-17T10:13:53.550Z,2.07
2022-10-17T10:15:45.925Z,2.17
2022-10-17T10:17:37.319Z,2.20
2022-10-17T10:18:59.535Z,2.20
2022-10-17T10:20:37.001Z,2.23
2022-10-17T10:22:03.468Z,2.17
2022-10-17T10:23:25.613Z,2.27
2022-10-17T10:25:17.071Z,2.00
2022-10-17T10:26:42.537Z,2.10
2022-10-17T10:28:11.843Z,2.57
2022-10-17T10:29:37.058Z,1.90
2022-10-17T10:31:02.468Z,2.40
2022-10-17T10:32:31.173Z,2.43
2022-10-17T10:33:56.798Z,2.73
2022-10-17T10:35:22.593Z,1.97
2022-10-17T10:36:53.373Z,1.97
2022-10-17T10:38:17.653Z,2.07
2022-10-17T10:39:47.748Z,2.20
2022-10-17T10:41:11.832Z,2.77
2022-10-17T10:42:41.254Z,2.50
2022-10-17T10:44:04.830Z,2.40
2022-10-17T10:45:47.566Z,2.47
2022-10-17T10:47:36.776Z,2.43
2022-10-17T10:49:03.188Z,2.70
2022-10-17T10:50:47.428Z,3.13
2022-10-17T10:52:18.298Z,2.10
2022-10-17T10:53:56.196Z,2.50
2022-10-17T10:55:32.104Z,2.20
2022-10-17T10:56:56.700Z,3.70
2022-10-17T10:58:42.042Z,2.60
2022-10-17T11:00:09.950Z,2.90
2022-10-17T11:01:41.833Z,2.77
2022-10-17T11:03:31.248Z,2.47
2022-10-17T11:04:59.252Z,2.27
2022-10-17T11:06:27.592Z,2.87
2022-10-17T11:08:27.433Z,2.90
2022-10-17T11:10:10.938Z,5.87
2022-10-17T11:11:40.511Z,2.60
2022-10-17T11:13:22.531Z,2.30
2022-10-17T11:14:51.713Z,1.77
2022-10-17T11:16:32.013Z,2.30
2022-10-17T11:18:11.988Z,2.80
2022-10-17T11:19:46.732Z,2.03
2022-10-17T11:21:20.657Z,2.03
2022-10-17T11:22:47.320Z,2.40
2022-10-17T11:24:42.593Z,2.07
2022-10-17T11:26:11.085Z,1.80
2022-10-17T11:27:34.593Z,2.13
2022-10-17T11:28:58.586Z,2.03
2022-10-17T11:30:21.985Z,2.27
2022-10-17T11:31:50.593Z,2.10
2022-10-17T11:33:19.816Z,2.80
2022-10-17T11:34:49.686Z,2.10
2022-10-17T11:36:14.508Z,2.40
2022-10-17T11:37:47.057Z,2.40
2022-10-17T11:39:23.715Z,2.43
2022-10-17T11:40:50.379Z,2.07
2022-10-17T11:42:24.779Z,2.13
2022-10-17T11:43:58.559Z,2.30
2022-10-17T11:45:23.487Z,2.20
2022-10-17T11:46:50.046Z,2.23
2022-10-17T11:48:26.511Z,2.40
2022-10-17T11:49:57.765Z,2.63
2022-10-17T11:53:14.512Z,2.33
2022-10-17T11:54:48.918Z,1.97
2022-10-17T11:56:12.688Z,2.10
2022-10-17T11:58:09.221Z,2.53
2022-10-17T11:59:56.431Z,2.30
2022-10-17T12:01:24.567Z,1.93
2022-10-17T12:02:57.858Z,2.53
2022-10-17T12:04:25.715Z,1.93
2022-10-17T12:05:55.769Z,2.00
2022-10-17T12:07:22.266Z,2.20
2022-10-17T12:09:10.416Z,2.37
2022-10-17T12:10:35.345Z,2.27
2022-10-17T12:11:59.874Z,2.40
2022-10-17T12:13:33.861Z,2.27
2022-10-17T12:15:25.310Z,2.30
2022-10-17T12:16:47.433Z,2.40
2022-10-17T12:18:17.131Z,2.30
2022-10-17T12:19:39.215Z,2.50
2022-10-17T12:21:01.500Z,2.47
2022-10-17T12:22:26.003Z,2.33
2022-10-17T12:23:55.701Z,2.50
2022-10-17T12:25:32.084Z,2.30
2022-10-17T12:26:57.018Z,2.00
2022-10-17T12:28:24.840Z,2.80
2022-10-17T12:29:48.373Z,2.20
2022-10-17T12:31:16.825Z,2.20
2022-10-17T12:33:05.601Z,1.90
2022-10-17T12:34:28.485Z,3.33
2022-10-17T12:35:51.766Z,4.50
2022-10-17T12:37:15.119Z,3.53
2022-10-17T12:38:37.170Z,2.90
2022-10-17T12:39:59.223Z,2.60
2022-10-17T12:41:39.221Z,2.20
2022-10-17T12:43:02.961Z,2.37
2022-10-17T12:44:28.752Z,2.07
2022-10-17T12:45:55.269Z,2.23
2022-10-17T12:47:37.797Z,1.77
2022-10-17T12:49:03.225Z,2.33
2022-10-17T12:51:34.663Z,1.83
2022-10-17T12:53:04.730Z,1.93
2022-10-17T12:54:26.793Z,2.97
2022-10-17T12:55:51.830Z,3.00
2022-10-17T12:57:51.480Z,2.30
2022-10-17T12:59:33.920Z,2.53
2022-10-17T13:01:23.905Z,2.17
2022-10-17T13:02:41.605Z,2.47
2022-10-17T13:04:05.971Z,2.20
2022-10-17T13:05:38.426Z,2.03
2022-10-17T13:07:01.602Z,2.67
2022-10-17T13:08:46.819Z,2.57
2022-10-17T13:11:50.413Z,2.30
2022-10-17T13:13:33.759Z,2.30
2022-10-17T13:14:56.285Z,2.30
2022-10-17T13:16:36.289Z,2.83
2022-10-17T13:18:00.418Z,2.83
2022-10-17T13:19:29.829Z,3.00
2022-10-17T13:21:15.953Z,2.90
2022-10-17T13:22:45.336Z,2.97
2022-10-17T13:24:42.600Z,2.30
2022-10-17T13:26:07.704Z,2.70
2022-10-17T13:27:33.024Z,2.90
2022-10-17T13:29:15.258Z,2.10
2022-10-17T13:30:37.618Z,2.73
2022-10-17T13:32:02.415Z,2.23
2022-10-17T13:33:39.077Z,2.40
2022-10-17T13:35:17.170Z,2.40
2022-10-17T13:36:39.301Z,2.83
2022-10-17T13:38:04.041Z,2.50
2022-10-17T13:39:54.514Z,2.63
2022-10-17T13:41:35.397Z,2.50
2022-10-17T13:43:02.218Z,2.47
2022-10-17T13:44:27.465Z,3.10
2022-10-17T13:46:02.219Z,2.70
2022-10-17T13:47:30.579Z,3.50
2022-10-17T13:48:53.307Z,3.10
2022-10-17T13:50:43.673Z,3.30
2022-10-17T13:52:17.597Z,2.50
2022-10-17T13:53:43.824Z,3.00
2022-10-17T13:55:17.439Z,2.67
2022-10-17T13:56:40.839Z,3.07
2022-10-17T13:58:39.289Z,3.07
2022-10-17T14:00:09.952Z,3.20
2022-10-17T14:01:34.152Z,2.60
2022-10-17T14:02:56.429Z,3.03
2022-10-17T14:04:20.410Z,3.37
2022-10-17T14:06:09.811Z,2.80
2022-10-17T14:08:09.295Z,2.70
2022-10-17T14:09:29.023Z,2.73
2022-10-17T14:10:51.242Z,2.73
2022-10-17T14:12:13.953Z,2.90
2022-10-17T14:13:36.182Z,2.90
2022-10-17T14:15:10.223Z,2.50
2022-10-17T14:16:43.164Z,2.90
2022-10-17T14:18:08.960Z,2.50
2022-10-17T14:19:37.968Z,2.97
2022-10-17T14:21:34.300Z,2.80
2022-10-17T14:22:50.475Z,2.80
2022-10-17T14:24:22.620Z,2.70
2022-10-17T14:25:44.858Z,2.80
2022-10-17T14:27:25.273Z,2.80
2022-10-17T14:29:04.837Z,3.03
2022-10-17T14:30:51.821Z,2.53
2022-10-17T14:32:15.192Z,3.13
2022-10-17T14:33:39.958Z,2.67
2022-10-17T14:35:30.187Z,2.80
2022-10-17T14:36:51.282Z,2.80
2022-10-17T14:38:15.718Z,2.40
2022-10-17T14:39:38.536Z,2.83
2022-10-17T14:42:59.506Z,2.90
2022-10-17T14:44:30.777Z,2.90
2022-10-17T14:45:52.916Z,2.50
2022-10-17T14:47:42.234Z,2.93
2022-10-17T14:49:14.335Z,3.20
2022-10-17T14:50:36.576Z,2.97
2022-10-17T14:52:15.169Z,2.80
2022-10-17T14:53:39.770Z,2.90
2022-10-17T14:55:23.224Z,2.97
2022-10-17T14:56:52.215Z,2.87
2022-10-17T14:58:27.697Z,3.00
2022-10-17T14:59:54.607Z,2.97
2022-10-17T15:01:17.746Z,3.10
2022-10-17T15:02:39.845Z,3.30
2022-10-17T15:04:02.059Z,3.33
2022-10-17T15:05:25.010Z,3.13
2022-10-17T15:06:54.558Z,3.47
2022-10-17T15:08:20.042Z,3.07
2022-10-17T15:09:43.436Z,3.20
2022-10-17T15:11:05.709Z,3.07
2022-10-17T15:12:28.259Z,2.93
2022-10-17T15:13:51.204Z,3.23
2022-10-17T15:15:13.382Z,2.93
2022-10-17T15:16:35.629Z,2.97
2022-10-17T15:17:57.982Z,3.00
2022-10-17T15:19:20.129Z,3.03
2022-10-17T15:20:42.395Z,3.37
2022-10-17T15:22:04.430Z,3.60
2022-10-17T15:23:26.480Z,2.67
2022-10-17T15:24:48.610Z,3.43
2022-10-17T15:26:21.929Z,3.17
2022-10-17T15:27:44.012Z,3.00
2022-10-17T15:29:06.161Z,3.17
2022-10-17T15:30:32.036Z,3.30
2022-10-17T15:31:54.218Z,3.27
2022-10-17T15:33:16.302Z,3.30
2022-10-17T15:34:38.748Z,3.30
2022-10-17T15:36:00.806Z,3.37
2022-10-17T15:37:25.260Z,3.20
2022-10-17T15:38:48.185Z,3.17
2022-10-17T15:40:17.890Z,2.93
2022-10-17T15:41:39.890Z,2.70
2022-10-17T15:43:02.090Z,3.23
2022-10-17T15:44:24.225Z,3.27
2022-10-17T15:45:46.420Z,3.07
2022-10-17T15:47:25.644Z,3.37
2022-10-17T15:48:48.030Z,3.20
2022-10-17T15:50:17.614Z,3.20
2022-10-17T15:51:40.510Z,3.37
2022-10-17T15:53:02.617Z,3.40
2022-10-17T15:54:24.667Z,3.23
2022-10-17T15:55:50.049Z,3.50
2022-10-17T15:57:19.142Z,3.00
2022-10-17T15:58:41.314Z,3.53
2022-10-17T16:00:06.150Z,3.53
2022-10-17T16:01:30.834Z,3.70
2022-10-17T16:02:52.866Z,3.97
2022-10-17T16:04:15.916Z,3.90
2022-10-17T16:05:38.049Z,3.67
2022-10-17T16:07:00.054Z,4.13
2022-10-17T16:08:22.315Z,3.83
2022-10-17T16:09:44.728Z,4.17
2022-10-17T16:11:06.904Z,4.60
2022-10-17T16:12:30.041Z,4.37
2022-10-17T16:13:54.806Z,3.83
2022-10-17T16:15:28.017Z,4.07
2022-10-17T16:16:50.145Z,4.33
2022-10-17T16:18:12.183Z,4.23
2022-10-17T16:19:34.178Z,3.53
2022-10-17T16:20:56.260Z,4.50
2022-10-17T16:22:28.229Z,3.53
2022-10-17T16:23:50.500Z,4.85
2022-10-17T16:25:26.953Z,4.77
2022-10-17T16:26:49.218Z,5.57
2022-10-17T16:28:12.084Z,5.83
2022-10-17T16:29:34.145Z,6.30
2022-10-17T16:30:56.266Z,6.10
2022-10-17T16:32:18.333Z,6.50
2022-10-17T16:33:40.344Z,7.20
2022-10-17T16:35:02.449Z,6.63
2022-10-17T16:36:24.843Z,7.07
2022-10-17T16:37:47.595Z,6.17
2022-10-17T16:39:09.684Z,6.17
2022-10-17T16:40:31.873Z,5.63
2022-10-17T16:41:56.277Z,4.83
2022-10-17T16:43:20.581Z,5.10
2022-10-17T16:44:42.690Z,4.90
2022-10-17T16:46:04.868Z,4.47
2022-10-17T16:47:26.963Z,4.70
2022-10-17T16:48:49.257Z,4.20
2022-10-17T16:50:11.561Z,4.83
2022-10-17T16:51:35.815Z,4.40
2022-10-17T16:52:57.872Z,5.20
2022-10-17T16:54:19.931Z,5.47
2022-10-17T16:55:41.986Z,6.37
2022-10-17T16:57:04.658Z,7.63
2022-10-17T16:58:30.661Z,6.33
2022-10-17T16:59:52.712Z,5.93
2022-10-17T17:01:17.960Z,5.03
2022-10-17T17:02:40.215Z,5.27
2022-10-17T17:04:04.522Z,6.10
2022-10-17T17:05:26.739Z,4.80
2022-10-17T17:06:49.327Z,5.00
2022-10-17T17:08:12.658Z,4.50
2022-10-17T17:09:34.871Z,6.33
2022-10-17T17:10:57.567Z,4.80
2022-10-17T17:12:19.637Z,4.60
2022-10-17T17:13:41.963Z,5.00
2022-10-17T17:15:04.549Z,4.53
2022-10-17T17:16:28.327Z,4.57
2022-10-17T17:17:53.520Z,4.37
2022-10-17T17:19:17.620Z,5.20
2022-10-17T17:20:40.713Z,5.30
2022-10-17T17:22:03.139Z,5.20
2022-10-17T17:23:25.301Z,5.77
2022-10-17T17:24:47.299Z,5.40
2022-10-17T17:26:14.981Z,5.57
2022-10-17T17:27:37.027Z,6.30
2022-10-17T17:29:00.330Z,5.30
2022-10-17T17:30:22.613Z,4.73
2022-10-17T17:31:44.749Z,4.63
2022-10-17T17:33:06.882Z,4.40
2022-10-17T17:34:29.127Z,4.17
2022-10-17T17:36:00.044Z,4.27
2022-10-17T17:37:22.059Z,4.43
2022-10-17T17:38:44.765Z,4.67
2022-10-17T17:40:07.510Z,4.07
2022-10-17T17:41:29.690Z,4.07
2022-10-17T17:42:51.919Z,4.80
2022-10-17T17:44:16.731Z,4.50
2022-10-17T17:45:39.399Z,4.27
2022-10-17T17:47:01.497Z,4.80
2022-10-17T17:48:23.628Z,4.70
2022-10-17T17:49:45.630Z,5.07
2022-10-17T17:51:10.127Z,4.23
2022-10-17T17:52:32.360Z,5.63
2022-10-17T17:53:54.898Z,4.33
2022-10-17T17:55:17.036Z,4.83
2022-10-17T17:56:39.717Z,4.83
2022-10-17T17:58:02.090Z,5.50
2022-10-17T17:59:24.113Z,5.23
2022-10-17T18:00:46.232Z,5.07
2022-10-17T18:02:09.581Z,5.10
2022-10-17T18:03:31.677Z,4.77
2022-10-17T18:04:53.799Z,5.40
2022-10-17T18:06:16.650Z,5.53
2022-10-17T18:07:38.842Z,5.17
2022-10-17T18:09:01.645Z,4.60
2022-10-17T18:10:23.878Z,4.90
2022-10-17T18:11:46.201Z,5.90
2022-10-17T18:13:08.278Z,6.00
2022-10-17T18:14:30.391Z,5.40
2022-10-17T18:15:57.974Z,5.67
2022-10-17T18:17:20.006Z,5.60
2022-10-17T18:18:43.827Z,5.90
2022-10-17T18:20:07.243Z,5.90
2022-10-17T18:21:29.351Z,5.70
2022-10-17T18:22:51.450Z,5.93
2022-10-17T18:24:13.614Z,6.07
2022-10-17T18:25:35.915Z,6.27
2022-10-17T18:26:59.918Z,5.50
2022-10-17T18:28:22.133Z,6.10
2022-10-17T18:29:48.138Z,6.10
2022-10-17T18:31:15.296Z,6.17
2022-10-17T18:32:37.435Z,5.60
2022-10-17T18:34:02.799Z,6.87
2022-10-17T18:35:24.840Z,6.37
2022-10-17T18:36:47.053Z,6.33
2022-10-17T18:38:09.077Z,7.40
2022-10-17T18:39:31.070Z,6.40
2022-10-17T18:41:06.340Z,5.80
2022-10-17T18:42:28.584Z,6.70
2022-10-17T18:43:52.136Z,6.00
2022-10-17T18:45:14.258Z,6.10
2022-10-17T18:46:40.711Z,6.70
2022-10-17T18:48:02.838Z,5.70
2022-10-17T18:49:25.610Z,6.37
2022-10-17T18:50:47.711Z,6.10
2022-10-17T18:52:09.784Z,6.40
2022-10-17T18:53:32.427Z,5.80
2022-10-17T18:54:54.627Z,6.23
2022-10-17T18:56:17.630Z,6.30
2022-10-17T18:57:39.655Z,6.30
2022-10-17T18:59:01.683Z,6.90
2022-10-17T19:00:23.655Z,6.67
2022-10-17T19:01:45.858Z,7.03
2022-10-17T19:03:08.300Z,6.03
2022-10-17T19:04:30.322Z,6.70
2022-10-17T19:05:52.385Z,7.30
2022-10-17T19:07:14.456Z,6.50
2022-10-17T19:08:37.941Z,6.10
2022-10-17T19:10:00.125Z,6.13
2022-10-17T19:11:24.550Z,6.13
2022-10-17T19:12:46.534Z,6.53
2022-10-17T19:14:13.252Z,5.63
2022-10-17T19:15:35.815Z,5.20
2022-10-17T19:16:59.636Z,5.60
2022-10-17T19:18:21.619Z,4.73
2022-10-17T19:19:43.737Z,4.20
2022-10-17T19:21:08.231Z,4.13
2022-10-17T19:22:31.264Z,4.70
2022-10-17T19:24:00.350Z,4.40
2022-10-17T19:25:22.320Z,3.70
2022-10-17T19:26:45.986Z,3.40